sensor_id;sensor_type;location;lat;lon;timestamp;pressure;altitude;pressure_sealevel;temperature;humidity
20630;BME280;17386;43.846;25.950;2023-01-19T00:00:07;100222.81;;;16.29;86.20
20630;BME280;17386;43.846;25.950;2023-01-19T00:02:35;100225.47;;;16.29;86.10
20630;BME280;17386;43.846;25.950;2023-01-19T00:05:01;100220.22;;;16.28;86.34
20630;BME280;17386;43.846;25.950;2023-01-19T00:07:32;100218.19;;;16.31;86.67
20630;BME280;17386;43.846;25.950;2023-01-19T00:09:58;100218.41;;;16.28;87.06
20630;BME280;17386;43.846;25.950;2023-01-19T00:12:23;100215.84;;;16.27;87.15
20630;BME280;17386;43.846;25.950;2023-01-19T00:14:49;100196.41;;;16.23;87.36
20630;BME280;17386;43.846;25.950;2023-01-19T00:17:14;100223.09;;;16.25;87.61
20630;BME280;17386;43.846;25.950;2023-01-19T00:19:40;100221.19;;;16.27;87.70
20630;BME280;17386;43.846;25.950;2023-01-19T00:22:05;100220.53;;;16.23;87.53
20630;BME280;17386;43.846;25.950;2023-01-19T00:24:31;100215.72;;;16.28;87.56
20630;BME280;17386;43.846;25.950;2023-01-19T00:26:57;100216.59;;;16.29;87.42
20630;BME280;17386;43.846;25.950;2023-01-19T00:29:22;100216.69;;;16.27;87.48
20630;BME280;17386;43.846;25.950;2023-01-19T00:31:48;100214.75;;;16.29;87.09
20630;BME280;17386;43.846;25.950;2023-01-19T00:34:14;100218.59;;;16.25;87.40
20630;BME280;17386;43.846;25.950;2023-01-19T00:36:40;100218.72;;;16.24;87.68
20630;BME280;17386;43.846;25.950;2023-01-19T00:39:06;100213.56;;;16.21;87.89
20630;BME280;17386;43.846;25.950;2023-01-19T00:41:31;100212.72;;;16.20;87.88
20630;BME280;17386;43.846;25.950;2023-01-19T00:44:15;100225.03;;;16.23;87.58
20630;BME280;17386;43.846;25.950;2023-01-19T00:46:41;100226.44;;;16.28;87.21
20630;BME280;17386;43.846;25.950;2023-01-19T00:49:06;100225.19;;;16.34;87.12
20630;BME280;17386;43.846;25.950;2023-01-19T00:51:31;100225.69;;;16.39;86.50
20630;BME280;17386;43.846;25.950;2023-01-19T00:53:57;100230.75;;;16.44;86.45
20630;BME280;17386;43.846;25.950;2023-01-19T00:56:29;100226.16;;;16.46;86.18
20630;BME280;17386;43.846;25.950;2023-01-19T00:58:54;100219.06;;;16.45;86.17
20630;BME280;17386;43.846;25.950;2023-01-19T01:01:20;100216.09;;;16.49;86.06
20630;BME280;17386;43.846;25.950;2023-01-19T01:03:45;100213.53;;;16.48;85.94
20630;BME280;17386;43.846;25.950;2023-01-19T01:06:11;100224.13;;;16.49;85.85
20630;BME280;17386;43.846;25.950;2023-01-19T01:08:37;100209.09;;;16.47;85.93
20630;BME280;17386;43.846;25.950;2023-01-19T01:11:03;100212.66;;;16.47;85.89
20630;BME280;17386;43.846;25.950;2023-01-19T01:13:28;100208.16;;;16.48;85.65
20630;BME280;17386;43.846;25.950;2023-01-19T01:15:54;100213.28;;;16.51;85.53
20630;BME280;17386;43.846;25.950;2023-01-19T01:18:20;100217.56;;;16.53;85.16
20630;BME280;17386;43.846;25.950;2023-01-19T01:20:46;100222.75;;;16.56;85.01
20630;BME280;17386;43.846;25.950;2023-01-19T01:23:12;100210.50;;;16.65;84.40
20630;BME280;17386;43.846;25.950;2023-01-19T01:25:37;100228.13;;;16.69;84.46
20630;BME280;17386;43.846;25.950;2023-01-19T01:28:04;100209.53;;;16.66;84.28
20630;BME280;17386;43.846;25.950;2023-01-19T01:30:33;100221.81;;;16.70;84.04
20630;BME280;17386;43.846;25.950;2023-01-19T01:32:59;100212.81;;;16.71;84.16
20630;BME280;17386;43.846;25.950;2023-01-19T01:35:24;100219.03;;;16.72;83.87
20630;BME280;17386;43.846;25.950;2023-01-19T01:37:50;100217.19;;;16.72;84.02
20630;BME280;17386;43.846;25.950;2023-01-19T01:40:16;100212.22;;;16.66;83.94
20630;BME280;17386;43.846;25.950;2023-01-19T01:42:42;100207.56;;;16.70;83.99
20630;BME280;17386;43.846;25.950;2023-01-19T01:45:35;100214.63;;;16.71;84.03
20630;BME280;17386;43.846;25.950;2023-01-19T01:48:23;100213.19;;;16.65;84.34
20630;BME280;17386;43.846;25.950;2023-01-19T01:51:23;100207.09;;;16.63;84.62
20630;BME280;17386;43.846;25.950;2023-01-19T01:56:38;100194.53;;;16.51;85.20
20630;BME280;17386;43.846;25.950;2023-01-19T01:59:11;100191.22;;;16.47;85.19
20630;BME280;17386;43.846;25.950;2023-01-19T02:01:42;100177.81;;;16.47;85.28
20630;BME280;17386;43.846;25.950;2023-01-19T02:04:26;100175.13;;;16.47;85.08
20630;BME280;17386;43.846;25.950;2023-01-19T02:06:52;100184.97;;;16.47;85.09
20630;BME280;17386;43.846;25.950;2023-01-19T02:09:36;100188.53;;;16.47;84.89
20630;BME280;17386;43.846;25.950;2023-01-19T02:12:21;100182.28;;;16.47;84.69
20630;BME280;17386;43.846;25.950;2023-01-19T02:15:12;100184.22;;;16.45;84.68
20630;BME280;17386;43.846;25.950;2023-01-19T02:17:39;100178.97;;;16.43;84.61
20630;BME280;17386;43.846;25.950;2023-01-19T02:20:04;100178.22;;;16.41;84.50
20630;BME280;17386;43.846;25.950;2023-01-19T02:22:33;100188.09;;;16.40;84.19
20630;BME280;17386;43.846;25.950;2023-01-19T02:25:02;100183.66;;;16.39;84.42
20630;BME280;17386;43.846;25.950;2023-01-19T02:27:27;100177.44;;;16.39;84.32
20630;BME280;17386;43.846;25.950;2023-01-19T02:29:53;100172.31;;;16.36;84.42
20630;BME280;17386;43.846;25.950;2023-01-19T02:32:19;100175.97;;;16.35;84.52
20630;BME280;17386;43.846;25.950;2023-01-19T02:34:45;100190.00;;;16.38;84.71
20630;BME280;17386;43.846;25.950;2023-01-19T02:37:12;100188.16;;;16.39;84.31
20630;BME280;17386;43.846;25.950;2023-01-19T02:39:49;100189.03;;;16.39;84.58
20630;BME280;17386;43.846;25.950;2023-01-19T02:42:20;100202.25;;;16.42;84.08
20630;BME280;17386;43.846;25.950;2023-01-19T02:44:49;100201.28;;;16.44;83.61
20630;BME280;17386;43.846;25.950;2023-01-19T02:47:16;100202.78;;;16.48;83.69
20630;BME280;17386;43.846;25.950;2023-01-19T02:49:42;100201.81;;;16.49;83.43
20630;BME280;17386;43.846;25.950;2023-01-19T02:52:14;100202.56;;;16.51;83.21
20630;BME280;17386;43.846;25.950;2023-01-19T02:55:15;100198.81;;;16.53;83.12
20630;BME280;17386;43.846;25.950;2023-01-19T03:06:05;100218.66;;;16.51;82.76
20630;BME280;17386;43.846;25.950;2023-01-19T03:11:09;100213.28;;;16.51;82.61
20630;BME280;17386;43.846;25.950;2023-01-19T03:13:46;100225.09;;;16.48;82.77
20630;BME280;17386;43.846;25.950;2023-01-19T03:18:42;100218.97;;;16.46;82.47
20630;BME280;17386;43.846;25.950;2023-01-19T03:21:11;100224.00;;;16.51;82.45
20630;BME280;17386;43.846;25.950;2023-01-19T03:23:41;100234.53;;;16.54;82.55
20630;BME280;17386;43.846;25.950;2023-01-19T03:26:13;100231.31;;;16.49;82.37
20630;BME280;17386;43.846;25.950;2023-01-19T03:28:40;100227.66;;;16.50;82.22
20630;BME280;17386;43.846;25.950;2023-01-19T03:31:16;100225.44;;;16.56;82.21
20630;BME280;17386;43.846;25.950;2023-01-19T03:33:45;100229.28;;;16.52;82.15
20630;BME280;17386;43.846;25.950;2023-01-19T03:36:19;100215.75;;;16.54;82.30
20630;BME280;17386;43.846;25.950;2023-01-19T03:38:47;100235.50;;;16.53;82.19
20630;BME280;17386;43.846;25.950;2023-01-19T03:41:16;100235.41;;;16.54;81.75
20630;BME280;17386;43.846;25.950;2023-01-19T03:43:44;100226.47;;;16.54;82.14
20630;BME280;17386;43.846;25.950;2023-01-19T03:46:12;100224.13;;;16.49;81.95
20630;BME280;17386;43.846;25.950;2023-01-19T03:48:41;100229.38;;;16.51;81.88
20630;BME280;17386;43.846;25.950;2023-01-19T03:51:08;100233.66;;;16.53;81.57
20630;BME280;17386;43.846;25.950;2023-01-19T03:53:34;100243.63;;;16.51;81.69
20630;BME280;17386;43.846;25.950;2023-01-19T03:55:59;100242.22;;;16.46;81.65
20630;BME280;17386;43.846;25.950;2023-01-19T03:58:25;100242.63;;;16.39;81.92
20630;BME280;17386;43.846;25.950;2023-01-19T04:00:50;100241.78;;;16.39;81.77
20630;BME280;17386;43.846;25.950;2023-01-19T04:03:16;100248.78;;;16.41;81.52
20630;BME280;17386;43.846;25.950;2023-01-19T04:05:43;100242.75;;;16.38;81.62
20630;BME280;17386;43.846;25.950;2023-01-19T04:08:09;100245.13;;;16.42;81.96
20630;BME280;17386;43.846;25.950;2023-01-19T04:10:35;100254.44;;;16.37;81.75
20630;BME280;17386;43.846;25.950;2023-01-19T04:13:01;100247.56;;;16.33;81.61
20630;BME280;17386;43.846;25.950;2023-01-19T04:15:27;100256.50;;;16.33;81.63
20630;BME280;17386;43.846;25.950;2023-01-19T04:17:53;100250.25;;;16.33;81.64
20630;BME280;17386;43.846;25.950;2023-01-19T04:20:19;100260.22;;;16.31;81.55
20630;BME280;17386;43.846;25.950;2023-01-19T04:22:46;100277.25;;;16.30;81.15
20630;BME280;17386;43.846;25.950;2023-01-19T04:25:11;100275.44;;;16.30;81.26
20630;BME280;17386;43.846;25.950;2023-01-19T04:27:36;100267.50;;;16.29;80.97
20630;BME280;17386;43.846;25.950;2023-01-19T04:30:02;100264.94;;;16.27;81.05
20630;BME280;17386;43.846;25.950;2023-01-19T04:32:29;100273.84;;;16.28;80.83
20630;BME280;17386;43.846;25.950;2023-01-19T04:34:54;100278.41;;;16.26;81.17
20630;BME280;17386;43.846;25.950;2023-01-19T04:37:20;100284.09;;;16.21;81.37
20630;BME280;17386;43.846;25.950;2023-01-19T04:39:45;100287.41;;;16.25;81.05
20630;BME280;17386;43.846;25.950;2023-01-19T04:42:11;100276.56;;;16.13;81.49
20630;BME280;17386;43.846;25.950;2023-01-19T04:44:37;100278.06;;;16.18;81.79
20630;BME280;17386;43.846;25.950;2023-01-19T04:47:02;100287.06;;;16.17;81.56
20630;BME280;17386;43.846;25.950;2023-01-19T04:49:28;100286.09;;;16.18;81.73
20630;BME280;17386;43.846;25.950;2023-01-19T04:51:56;100297.69;;;16.18;81.89
20630;BME280;17386;43.846;25.950;2023-01-19T04:54:21;100299.84;;;16.13;81.94
20630;BME280;17386;43.846;25.950;2023-01-19T04:56:47;100300.97;;;16.09;82.28
20630;BME280;17386;43.846;25.950;2023-01-19T04:59:13;100300.75;;;16.12;82.10
20630;BME280;17386;43.846;25.950;2023-01-19T05:01:38;100288.22;;;16.12;81.94
20630;BME280;17386;43.846;25.950;2023-01-19T05:04:04;100294.38;;;16.14;82.10
20630;BME280;17386;43.846;25.950;2023-01-19T05:06:32;100293.69;;;16.11;82.08
20630;BME280;17386;43.846;25.950;2023-01-19T05:08:57;100298.00;;;16.13;81.93
20630;BME280;17386;43.846;25.950;2023-01-19T05:11:23;100301.63;;;16.12;81.79
20630;BME280;17386;43.846;25.950;2023-01-19T05:13:48;100297.16;;;16.13;81.79
20630;BME280;17386;43.846;25.950;2023-01-19T05:16:14;100290.38;;;16.07;82.14
20630;BME280;17386;43.846;25.950;2023-01-19T05:18:39;100302.91;;;16.07;82.01
20630;BME280;17386;43.846;25.950;2023-01-19T05:21:05;100302.34;;;16.02;82.65
20630;BME280;17386;43.846;25.950;2023-01-19T05:23:32;100313.91;;;16.02;82.80
20630;BME280;17386;43.846;25.950;2023-01-19T05:25:58;100313.25;;;15.99;83.00
20630;BME280;17386;43.846;25.950;2023-01-19T05:28:33;100318.25;;;15.91;83.53
20630;BME280;17386;43.846;25.950;2023-01-19T05:30:59;100313.56;;;15.94;83.53
20630;BME280;17386;43.846;25.950;2023-01-19T05:33:25;100319.50;;;15.85;83.73
20630;BME280;17386;43.846;25.950;2023-01-19T05:35:51;100315.19;;;15.82;83.62
20630;BME280;17386;43.846;25.950;2023-01-19T05:38:17;100328.69;;;15.81;83.83
20630;BME280;17386;43.846;25.950;2023-01-19T05:40:43;100329.44;;;15.83;83.71
20630;BME280;17386;43.846;25.950;2023-01-19T05:43:09;100327.16;;;15.77;83.96
20630;BME280;17386;43.846;25.950;2023-01-19T05:45:34;100337.81;;;15.78;83.85
20630;BME280;17386;43.846;25.950;2023-01-19T05:48:00;100337.81;;;15.78;83.91
20630;BME280;17386;43.846;25.950;2023-01-19T05:50:25;100350.41;;;15.76;83.84
20630;BME280;17386;43.846;25.950;2023-01-19T05:52:50;100349.66;;;15.74;83.96
20630;BME280;17386;43.846;25.950;2023-01-19T05:55:18;100355.88;;;15.75;83.77
20630;BME280;17386;43.846;25.950;2023-01-19T05:57:44;100363.91;;;15.75;84.07
20630;BME280;17386;43.846;25.950;2023-01-19T06:00:09;100370.13;;;15.75;83.92
20630;BME280;17386;43.846;25.950;2023-01-19T06:02:35;100365.63;;;15.76;84.28
20630;BME280;17386;43.846;25.950;2023-01-19T06:05:00;100364.84;;;15.74;84.29
20630;BME280;17386;43.846;25.950;2023-01-19T06:07:27;100366.69;;;15.73;84.61
20630;BME280;17386;43.846;25.950;2023-01-19T06:09:52;100359.78;;;15.69;84.70
20630;BME280;17386;43.846;25.950;2023-01-19T06:12:18;100362.34;;;15.71;84.91
20630;BME280;17386;43.846;25.950;2023-01-19T06:14:43;100367.72;;;15.71;84.74
20630;BME280;17386;43.846;25.950;2023-01-19T06:17:09;100366.19;;;15.67;84.55
20630;BME280;17386;43.846;25.950;2023-01-19T06:19:34;100371.25;;;15.71;84.33
20630;BME280;17386;43.846;25.950;2023-01-19T06:22:00;100379.97;;;15.75;84.35
20630;BME280;17386;43.846;25.950;2023-01-19T06:24:25;100384.47;;;15.74;84.30
20630;BME280;17386;43.846;25.950;2023-01-19T06:26:52;100386.28;;;15.74;83.98
20630;BME280;17386;43.846;25.950;2023-01-19T06:29:18;100389.81;;;15.74;84.00
20630;BME280;17386;43.846;25.950;2023-01-19T06:31:43;100388.00;;;15.75;83.79
20630;BME280;17386;43.846;25.950;2023-01-19T06:34:09;100389.13;;;15.71;83.74
20630;BME280;17386;43.846;25.950;2023-01-19T06:36:35;100391.63;;;15.74;83.95
20630;BME280;17386;43.846;25.950;2023-01-19T06:39:00;100400.63;;;15.73;83.71
20630;BME280;17386;43.846;25.950;2023-01-19T06:41:31;100392.66;;;15.71;83.66
20630;BME280;17386;43.846;25.950;2023-01-19T06:43:57;100391.75;;;15.72;83.64
20630;BME280;17386;43.846;25.950;2023-01-19T06:46:23;100393.47;;;15.73;83.48
20630;BME280;17386;43.846;25.950;2023-01-19T06:48:50;100393.16;;;15.78;83.37
20630;BME280;17386;43.846;25.950;2023-01-19T06:51:15;100392.69;;;15.85;83.03
20630;BME280;17386;43.846;25.950;2023-01-19T06:53:41;100388.00;;;15.89;82.60
20630;BME280;17386;43.846;25.950;2023-01-19T06:56:07;100396.59;;;15.94;82.31
20630;BME280;17386;43.846;25.950;2023-01-19T06:58:33;100383.97;;;15.96;81.99
20630;BME280;17386;43.846;25.950;2023-01-19T07:01:03;100387.13;;;16.03;81.90
20630;BME280;17386;43.846;25.950;2023-01-19T07:03:29;100382.72;;;16.02;81.50
20630;BME280;17386;43.846;25.950;2023-01-19T07:05:55;100396.47;;;16.10;81.35
20630;BME280;17386;43.846;25.950;2023-01-19T07:08:21;100390.63;;;16.18;80.96
20630;BME280;17386;43.846;25.950;2023-01-19T07:10:47;100378.88;;;16.20;80.59
20630;BME280;17386;43.846;25.950;2023-01-19T07:13:13;100380.25;;;16.26;80.27
20630;BME280;17386;43.846;25.950;2023-01-19T07:15:38;100376.22;;;16.33;79.77
20630;BME280;17386;43.846;25.950;2023-01-19T07:18:03;100375.63;;;16.42;79.48
20630;BME280;17386;43.846;25.950;2023-01-19T07:20:34;100382.31;;;16.49;79.33
20630;BME280;17386;43.846;25.950;2023-01-19T07:22:59;100383.75;;;16.55;79.05
20630;BME280;17386;43.846;25.950;2023-01-19T07:25:25;100392.31;;;16.60;78.63
20630;BME280;17386;43.846;25.950;2023-01-19T07:27:51;100393.09;;;16.62;78.53
20630;BME280;17386;43.846;25.950;2023-01-19T07:30:20;100403.72;;;16.63;78.51
20630;BME280;17386;43.846;25.950;2023-01-19T07:32:45;100405.31;;;16.66;78.41
20630;BME280;17386;43.846;25.950;2023-01-19T07:35:11;100401.31;;;16.73;78.21
20630;BME280;17386;43.846;25.950;2023-01-19T07:37:36;100405.69;;;16.74;78.21
20630;BME280;17386;43.846;25.950;2023-01-19T07:40:02;100394.50;;;16.82;77.56
20630;BME280;17386;43.846;25.950;2023-01-19T07:42:27;100394.38;;;16.83;77.55
20630;BME280;17386;43.846;25.950;2023-01-19T07:44:53;100405.03;;;16.98;76.75
20630;BME280;17386;43.846;25.950;2023-01-19T07:47:18;100398.19;;;17.06;75.93
20630;BME280;17386;43.846;25.950;2023-01-19T07:49:44;100410.78;;;17.18;75.61
20630;BME280;17386;43.846;25.950;2023-01-19T07:52:09;100406.03;;;17.22;74.28
20630;BME280;17386;43.846;25.950;2023-01-19T07:54:35;100398.00;;;17.35;74.15
20630;BME280;17386;43.846;25.950;2023-01-19T07:57:00;100392.88;;;17.44;73.41
20630;BME280;17386;43.846;25.950;2023-01-19T07:59:27;100386.97;;;17.52;73.02
20630;BME280;17386;43.846;25.950;2023-01-19T08:01:54;100390.28;;;17.56;72.40
20630;BME280;17386;43.846;25.950;2023-01-19T08:04:20;100388.56;;;17.67;72.00
20630;BME280;17386;43.846;25.950;2023-01-19T08:06:45;100392.00;;;17.82;71.77
20630;BME280;17386;43.846;25.950;2023-01-19T08:09:11;100382.66;;;17.88;70.98
20630;BME280;17386;43.846;25.950;2023-01-19T08:11:37;100391.69;;;17.99;70.57
20630;BME280;17386;43.846;25.950;2023-01-19T08:14:03;100393.69;;;18.09;69.87
20630;BME280;17386;43.846;25.950;2023-01-19T08:16:31;100394.09;;;18.15;69.90
20630;BME280;17386;43.846;25.950;2023-01-19T08:18:57;100391.50;;;18.26;68.93
20630;BME280;17386;43.846;25.950;2023-01-19T08:21:22;100399.00;;;18.34;68.82
20630;BME280;17386;43.846;25.950;2023-01-19T08:23:52;100389.50;;;18.41;67.77
20630;BME280;17386;43.846;25.950;2023-01-19T08:26:28;100387.09;;;18.49;67.55
20630;BME280;17386;43.846;25.950;2023-01-19T08:28:56;100376.63;;;18.57;66.83
20630;BME280;17386;43.846;25.950;2023-01-19T08:31:22;100386.94;;;18.64;66.10
20630;BME280;17386;43.846;25.950;2023-01-19T08:33:47;100402.91;;;18.67;66.39
20630;BME280;17386;43.846;25.950;2023-01-19T08:36:12;100389.09;;;18.71;66.19
20630;BME280;17386;43.846;25.950;2023-01-19T08:38:38;100389.34;;;18.79;65.94
20630;BME280;17386;43.846;25.950;2023-01-19T08:41:07;100385.22;;;18.86;65.75
20630;BME280;17386;43.846;25.950;2023-01-19T08:43:33;100380.34;;;18.92;65.58
20630;BME280;17386;43.846;25.950;2023-01-19T08:45:58;100372.56;;;19.00;64.71
20630;BME280;17386;43.846;25.950;2023-01-19T08:48:24;100364.25;;;19.03;64.64
20630;BME280;17386;43.846;25.950;2023-01-19T08:50:50;100377.72;;;19.14;64.24
20630;BME280;17386;43.846;25.950;2023-01-19T08:53:17;100374.09;;;19.26;63.73
20630;BME280;17386;43.846;25.950;2023-01-19T08:55:43;100368.88;;;19.47;62.67
20630;BME280;17386;43.846;25.950;2023-01-19T08:58:08;100366.25;;;19.70;61.55
20630;BME280;17386;43.846;25.950;2023-01-19T09:00:36;100377.50;;;19.97;61.04
20630;BME280;17386;43.846;25.950;2023-01-19T09:03:06;100387.78;;;20.26;60.03
20630;BME280;17386;43.846;25.950;2023-01-19T09:05:34;100384.78;;;20.51;59.23
20630;BME280;17386;43.846;25.950;2023-01-19T09:08:02;100381.78;;;20.65;58.12
20630;BME280;17386;43.846;25.950;2023-01-19T09:10:29;100377.72;;;20.71;58.02
20630;BME280;17386;43.846;25.950;2023-01-19T09:13:04;100388.00;;;20.77;57.77
20630;BME280;17386;43.846;25.950;2023-01-19T09:15:31;100376.47;;;20.86;56.22
20630;BME280;17386;43.846;25.950;2023-01-19T09:17:59;100376.06;;;20.91;56.67
20630;BME280;17386;43.846;25.950;2023-01-19T09:20:29;100374.88;;;21.04;55.43
20630;BME280;17386;43.846;25.950;2023-01-19T09:22:56;100390.75;;;20.98;54.64
20630;BME280;17386;43.846;25.950;2023-01-19T09:25:31;100379.59;;;20.91;54.73
20630;BME280;17386;43.846;25.950;2023-01-19T09:28:00;100368.09;;;20.89;53.74
20630;BME280;17386;43.846;25.950;2023-01-19T09:30:26;100362.56;;;20.91;53.33
20630;BME280;17386;43.846;25.950;2023-01-19T09:32:51;100376.38;;;20.97;52.93
20630;BME280;17386;43.846;25.950;2023-01-19T09:35:17;100384.75;;;20.94;52.98
20630;BME280;17386;43.846;25.950;2023-01-19T09:37:46;100373.16;;;21.03;52.61
20630;BME280;17386;43.846;25.950;2023-01-19T09:40:13;100381.41;;;21.23;52.17
20630;BME280;17386;43.846;25.950;2023-01-19T09:45:06;100364.94;;;21.26;51.84
20630;BME280;17386;43.846;25.950;2023-01-19T09:47:35;100380.78;;;21.30;51.43
20630;BME280;17386;43.846;25.950;2023-01-19T09:50:34;100366.38;;;21.41;50.52
20630;BME280;17386;43.846;25.950;2023-01-19T09:53:08;100364.84;;;21.48;50.40
20630;BME280;17386;43.846;25.950;2023-01-19T09:55:39;100361.97;;;21.71;50.27
20630;BME280;17386;43.846;25.950;2023-01-19T09:58:12;100348.94;;;21.95;49.02
20630;BME280;17386;43.846;25.950;2023-01-19T10:00:42;100352.25;;;21.99;47.60
20630;BME280;17386;43.846;25.950;2023-01-19T10:03:14;100348.94;;;22.26;47.59
20630;BME280;17386;43.846;25.950;2023-01-19T10:05:54;100334.56;;;22.64;46.76
20630;BME280;17386;43.846;25.950;2023-01-19T10:10:56;100334.91;;;22.90;45.56
20630;BME280;17386;43.846;25.950;2023-01-19T10:13:42;100329.19;;;23.03;45.43
20630;BME280;17386;43.846;25.950;2023-01-19T10:16:25;100327.66;;;23.47;43.99
20630;BME280;17386;43.846;25.950;2023-01-19T10:19:00;100337.91;;;23.63;42.98
20630;BME280;17386;43.846;25.950;2023-01-19T10:21:32;100338.03;;;23.98;42.96
20630;BME280;17386;43.846;25.950;2023-01-19T10:24:01;100321.13;;;24.32;42.06
20630;BME280;17386;43.846;25.950;2023-01-19T10:26:36;100332.03;;;24.68;41.08
20630;BME280;17386;43.846;25.950;2023-01-19T10:29:52;100308.25;;;24.70;40.74
20630;BME280;17386;43.846;25.950;2023-01-19T10:34:25;100298.81;;;24.56;40.93
20630;BME280;17386;43.846;25.950;2023-01-19T10:37:01;100294.94;;;24.59;40.82
20630;BME280;17386;43.846;25.950;2023-01-19T10:39:28;100294.00;;;24.50;40.58
20630;BME280;17386;43.846;25.950;2023-01-19T10:42:02;100287.28;;;24.26;40.65
20630;BME280;17386;43.846;25.950;2023-01-19T10:44:34;100299.56;;;24.31;41.07
20630;BME280;17386;43.846;25.950;2023-01-19T10:47:00;100305.03;;;24.21;40.32
20630;BME280;17386;43.846;25.950;2023-01-19T10:51:52;100303.25;;;24.39;40.90
20630;BME280;17386;43.846;25.950;2023-01-19T10:54:19;100307.66;;;24.76;40.41
20630;BME280;17386;43.846;25.950;2023-01-19T10:57:00;100302.38;;;24.56;40.41
20630;BME280;17386;43.846;25.950;2023-01-19T10:59:46;100301.53;;;24.56;40.55
20630;BME280;17386;43.846;25.950;2023-01-19T11:02:16;100300.75;;;24.46;40.40
20630;BME280;17386;43.846;25.950;2023-01-19T11:04:43;100299.50;;;24.40;40.16
20630;BME280;17386;43.846;25.950;2023-01-19T11:15:28;100297.84;;;23.84;41.85
20630;BME280;17386;43.846;25.950;2023-01-19T11:17:54;100294.72;;;23.79;42.10
20630;BME280;17386;43.846;25.950;2023-01-19T11:20:48;100297.16;;;23.82;41.98
20630;BME280;17386;43.846;25.950;2023-01-19T11:23:26;100286.84;;;23.86;42.12
20630;BME280;17386;43.846;25.950;2023-01-19T11:25:58;100277.50;;;23.98;41.95
20630;BME280;17386;43.846;25.950;2023-01-19T11:28:29;100280.44;;;24.05;42.48
20630;BME280;17386;43.846;25.950;2023-01-19T11:31:16;100278.75;;;24.21;41.65
20630;BME280;17386;43.846;25.950;2023-01-19T11:38:42;100251.63;;;23.39;42.20
20630;BME280;17386;43.846;25.950;2023-01-19T11:41:16;100268.97;;;23.18;42.68
20630;BME280;17386;43.846;25.950;2023-01-19T11:43:43;100264.47;;;22.80;43.05
20630;BME280;17386;43.846;25.950;2023-01-19T11:46:10;100273.16;;;22.74;43.55
20630;BME280;17386;43.846;25.950;2023-01-19T11:49:02;100274.44;;;22.70;43.95
20630;BME280;17386;43.846;25.950;2023-01-19T11:51:45;100272.59;;;22.61;44.26
20630;BME280;17386;43.846;25.950;2023-01-19T11:54:23;100285.28;;;22.51;44.73
20630;BME280;17386;43.846;25.950;2023-01-19T11:56:53;100264.75;;;22.29;44.51
20630;BME280;17386;43.846;25.950;2023-01-19T11:59:21;100262.63;;;22.13;45.01
20630;BME280;17386;43.846;25.950;2023-01-19T12:01:52;100283.56;;;22.21;45.33
20630;BME280;17386;43.846;25.950;2023-01-19T12:04:26;100270.88;;;22.11;44.78
20630;BME280;17386;43.846;25.950;2023-01-19T12:06:54;100258.72;;;21.96;44.91
20630;BME280;17386;43.846;25.950;2023-01-19T12:09:38;100266.09;;;21.94;45.39
20630;BME280;17386;43.846;25.950;2023-01-19T12:12:11;100272.06;;;21.88;45.49
20630;BME280;17386;43.846;25.950;2023-01-19T12:14:50;100273.50;;;21.92;45.76
20630;BME280;17386;43.846;25.950;2023-01-19T12:17:36;100269.66;;;21.95;45.90
20630;BME280;17386;43.846;25.950;2023-01-19T12:20:13;100282.94;;;21.98;45.68
20630;BME280;17386;43.846;25.950;2023-01-19T12:22:49;100276.91;;;21.94;46.15
20630;BME280;17386;43.846;25.950;2023-01-19T12:25:23;100278.91;;;21.92;45.74
20630;BME280;17386;43.846;25.950;2023-01-19T12:27:50;100264.66;;;21.80;45.60
20630;BME280;17386;43.846;25.950;2023-01-19T12:30:27;100271.47;;;21.75;45.35
20630;BME280;17386;43.846;25.950;2023-01-19T12:35:59;100283.56;;;21.71;45.33
20630;BME280;17386;43.846;25.950;2023-01-19T12:38:33;100282.72;;;21.70;45.95
20630;BME280;17386;43.846;25.950;2023-01-19T12:43:46;100280.69;;;21.63;46.05
20630;BME280;17386;43.846;25.950;2023-01-19T12:46:28;100282.34;;;21.54;46.48
20630;BME280;17386;43.846;25.950;2023-01-19T12:49:06;100284.09;;;21.55;46.43
20630;BME280;17386;43.846;25.950;2023-01-19T12:51:34;100281.63;;;21.52;46.15
20630;BME280;17386;43.846;25.950;2023-01-19T12:54:04;100279.75;;;21.43;46.56
20630;BME280;17386;43.846;25.950;2023-01-19T12:56:33;100277.31;;;21.40;46.61
20630;BME280;17386;43.846;25.950;2023-01-19T12:58:59;100263.69;;;21.41;46.64
20630;BME280;17386;43.846;25.950;2023-01-19T13:01:25;100270.91;;;21.41;46.82
20630;BME280;17386;43.846;25.950;2023-01-19T13:09:33;100263.97;;;21.27;47.13
20630;BME280;17386;43.846;25.950;2023-01-19T13:14:43;100268.97;;;21.22;47.35
20630;BME280;17386;43.846;25.950;2023-01-19T13:17:23;100271.34;;;21.15;47.61
20630;BME280;17386;43.846;25.950;2023-01-19T13:25:30;100265.44;;;21.00;48.28
20630;BME280;17386;43.846;25.950;2023-01-19T13:27:58;100277.34;;;20.98;48.22
20630;BME280;17386;43.846;25.950;2023-01-19T13:30:26;100276.09;;;21.02;48.57
20630;BME280;17386;43.846;25.950;2023-01-19T13:33:00;100286.44;;;20.97;48.76
20630;BME280;17386;43.846;25.950;2023-01-19T13:35:28;100272.22;;;20.95;48.94
20630;BME280;17386;43.846;25.950;2023-01-19T13:37:55;100271.59;;;20.91;48.96
20630;BME280;17386;43.846;25.950;2023-01-19T13:40:24;100261.94;;;20.89;49.02
20630;BME280;17386;43.846;25.950;2023-01-19T13:42:54;100269.19;;;20.88;48.94
20630;BME280;17386;43.846;25.950;2023-01-19T13:45:30;100265.31;;;20.81;49.17
20630;BME280;17386;43.846;25.950;2023-01-19T13:47:59;100273.06;;;20.74;49.18